Currently 72°F in Murrieta, California, USA
72°F
72°F / 63°F
2 mph SW
0.00"
Monday, July 22, 2019 9:08 AM PDT

Murrieta, California Weather Summary
Last 36 Hours

Temperature Winds Hourly Humidity Dewpoint
Time Report Norm Report Norm Max Gusts Precip. Rpt. Norm Rpt. Norm Pressure
1,2Mon 09:08 AM  72.0°F  76°F  2 mph SW  1 mph  4 mph  0.00"  75%  65%  63°F  63°F  30.02"
Mon 09:00 AM  71.6°F  76°F  1 mph SW  1 mph  5 mph  0.00"  76%  66%  63°F  63°F  30.02"
Mon 08:00 AM  67.3°F  71°F  calm  calm  8 mph  0.00"  85%  76%  62°F  63°F  30.00"
Mon 07:00 AM  65.3°F  66°F  4 mph S  1 mph  3 mph  0.00"  86%  83%  61°F  60°F  29.99"
Mon 06:00 AM  62.6°F  64°F  calm  1 mph  1 mph  0.00"  91%  85%  60°F  59°F  29.98"
3Mon 05:55 AM  62.5°F  64°F  calm  1 mph  none  ----  90%  85%  60°F  59°F  29.98"
Mon 05:00 AM  63.0°F  64°F  calm  1 mph  4 mph  0.00"  89%  84%  60°F  59°F  29.98"
Mon 04:00 AM  63.7°F  65°F  calm  1 mph  3 mph  0.00"  86%  83%  59°F  59°F  29.98"
Mon 03:00 AM  64.4°F  65°F  calm  1 mph  8 mph  0.00"  86%  82%  60°F  60°F  29.98"
Mon 02:00 AM  64.8°F  66°F  2 mph SW  1 mph  6 mph  0.00"  85%  80%  60°F  60°F  29.99"
Mon 01:00 AM  66.3°F  67°F  3 mph SW  1 mph  6 mph  0.00"  83%  79%  61°F  60°F  29.98"
Mon 12:00 AM  68.1°F  68°F  calm  2 mph  6 mph  0.00"  77%  78%  60°F  61°F  29.98"
Sun 11:00 PM  67.8°F  69°F  4 mph SW  2 mph  11 mph  0.00"  81%  77%  62°F  61°F  29.98"
Sun 10:00 PM  68.5°F  70°F  6 mph SW  4 mph  12 mph  0.00"  79%  76%  61°F  62°F  29.98"
Sun 09:00 PM  69.7°F  71°F  6 mph SW  7 mph  18 mph  0.00"  77%  73%  62°F  62°F  29.96"
Sun 08:00 PM  72.3°F  74°F  12 mph SW  8 mph  19 mph  0.00"  100%  68%  72°F  63°F  29.93"
Sun 07:00 PM  76.1°F  78°F  4 mph SW  9 mph  24 mph  0.00"  64%  58%  63°F  62°F  29.91"
Sun 06:00 PM  80.9°F  81°F  7 mph W  12 mph  27 mph  0.00"  55%  50%  63°F  61°F  29.88"
Sun 05:00 PM  87.3°F  85°F  15 mph SW  13 mph  24 mph  0.00"  100%  44%  87°F  59°F  29.88"
Sun 04:00 PM  90.5°F  87°F  14 mph SW  13 mph  23 mph  0.00"  39%  41%  61°F  60°F  29.90"
Sun 03:00 PM  90.9°F  88°F  14 mph SW  13 mph  23 mph  0.00"  38%  39%  61°F  59°F  29.91"
Sun 02:00 PM  94.8°F  89°F  10 mph SW  11 mph  14 mph  0.00"  18%  38%  43°F  59°F  29.91"
Sun 01:00 PM  94.8°F  89°F  2 mph E  10 mph  8 mph  0.00"  N/A  38%  N/A°F  59°F  29.93"
Sun 12:00 PM  91.7°F  88°F  calm  8 mph  7 mph  0.00"  24%  40%  48°F  59°F  29.96"
Sun 11:00 AM  86.2°F  84°F  1 mph SE  5 mph  7 mph  0.00"  38%  45%  57°F  60°F  29.97"
Sun 10:00 AM  80.4°F  80°F  2 mph S  3 mph  5 mph  0.00"  51%  55%  60°F  62°F  29.97"
Sun 09:00 AM  74.9°F  76°F  2 mph E  1 mph  5 mph  0.00"  66%  66%  62°F  63°F  29.98"
Sun 08:00 AM  67.7°F  71°F  3 mph SE  calm  5 mph  0.00"  79%  76%  61°F  63°F  29.98"
Sun 07:00 AM  62.6°F  66°F  calm  1 mph  2 mph  0.00"  88%  83%  59°F  60°F  29.96"
Sun 06:00 AM  59.6°F  64°F  calm  1 mph  5 mph  0.00"  91%  85%  57°F  59°F  29.95"
Sun 05:00 AM  59.9°F  64°F  calm  1 mph  none  0.00"  90%  84%  57°F  59°F  29.94"
Sun 04:00 AM  60.8°F  65°F  calm  1 mph  3 mph  0.00"  89%  83%  57°F  59°F  29.94"
Sun 03:00 AM  61.3°F  65°F  2 mph SW  1 mph  5 mph  0.00"  87%  82%  57°F  60°F  29.95"
Sun 02:00 AM  61.7°F  66°F  calm  1 mph  3 mph  0.00"  86%  80%  57°F  60°F  29.96"
Sun 01:00 AM  62.7°F  67°F  calm  1 mph  6 mph  0.00"  84%  79%  58°F  60°F  29.96"
Sun 12:00 AM  64.0°F  68°F  3 mph SW  2 mph  7 mph  0.00"  84%  78%  59°F  61°F  29.97"
Sat 11:00 PM  65.2°F  69°F  2 mph W  2 mph  10 mph  0.00"  83%  77%  60°F  61°F  29.96"
Sat 10:00 PM  65.9°F  70°F  5 mph SW  4 mph  14 mph  0.00"  82%  76%  60°F  62°F  29.95"

  1. Current weather data. No green row appears if the current weather data is also the high or low for the current day.
  2. High temperature for the current day.
  3. Low temperature for the current day.

The Murrieta weather pages are a service of WeatherCurrents. Murrieta, California is located in the Temecula Valley, in southwestern Riverside County, at the junctions of the Interstate 15 and 215 highways.
Copyright ©2019  WeatherCurrents. All rights reserved. - Submit questions and comments - Privacy Policy

This page automatically refreshes every 10 minutes.